Terminal Aerodrome Forecast
Issued by NWS Duluth, MN

Home | Current Version | Previous Version | Text Only | Print | Product List | Glossary On
Versions: 1 2 3 4 5 6 7 8 9 10 11 12 13 14 15 16 17 18
313
FTUS43 KDLH 240525
TAFDLH
TAF
KDLH 240525Z 2406/2506 19011KT P6SM BKN250
     FM240800 18005KT P6SM SCT023 BKN040
     FM241100 21005KT 2SM BR BKN025
     FM241500 24007KT P6SM SCT015 BKN250
     FM241700 27012G22KT P6SM BKN250
     FM250100 27007KT P6SM SKC=

USA.gov is the U.S. government's official web portal to all federal, state and local government web resources and services.